Time;durP1;ratioP1;P1;durP2;ratioP2;P2;SDS_P1;SDS_P2;PMS_P1;PMS_P2;Temp;Humidity;BMP_temperature;BMP_pressure;BME280_temperature;BME280_humidity;BME280_pressure;Samples;Min_cycle;Max_cycle;Signal;HPM_P1;HPM_P2
2022/05/23 00:02:19;;;;;;;5.40;3.57;;;13.30;1.00;;;;;;5057884;28;20482;-77
2022/05/23 00:04:47;;;;;;;6.33;3.70;;;13.30;1.00;;;;;;5053891;28;20625;-78
2022/05/23 00:07:16;;;;;;;8.27;3.90;;;13.30;1.00;;;;;;5056840;28;20572;-76
2022/05/23 00:09:43;;;;;;;5.87;3.50;;;13.20;1.00;;;;;;5058043;28;20476;-75
2022/05/23 00:12:10;;;;;;;5.73;3.77;;;13.10;1.00;;;;;;5055585;28;20535;-76
2022/05/23 00:14:37;;;;;;;6.73;4.27;;;13.10;1.00;;;;;;5057726;28;20946;-76
2022/05/23 00:17:04;;;;;;;6.67;3.80;;;13.00;1.00;;;;;;5059288;28;20464;-76
2022/05/23 00:19:31;;;;;;;6.37;4.30;;;13.00;1.00;;;;;;5059158;28;20605;-77
2022/05/23 00:21:59;;;;;;;8.37;4.00;;;13.00;1.00;;;;;;5059238;28;21255;-74
2022/05/23 00:24:26;;;;;;;5.67;3.80;;;13.00;1.00;;;;;;5059698;28;20502;-76
2022/05/23 00:26:53;;;;;;;6.70;4.20;;;13.00;1.00;;;;;;5060407;28;20641;-77
2022/05/23 00:29:20;;;;;;;8.90;4.63;;;12.90;1.00;;;;;;5057378;28;20501;-77
2022/05/23 00:37:20;;;;;;;7.10;4.60;;;12.90;1.00;;;;;;5060785;28;21395;-77
2022/05/23 00:39:46;;;;;;;7.30;4.27;;;12.90;1.00;;;;;;5061921;28;20525;-77
2022/05/23 00:45:02;;;;;;;6.30;4.50;;;12.80;1.00;;;;;;5057206;28;20479;-76
2022/05/23 00:47:33;;;;;;;7.27;4.43;;;12.70;1.00;;;;;;5057176;28;20551;-78
2022/05/23 00:49:59;;;;;;;7.40;4.00;;;12.70;1.00;;;;;;5058185;28;20560;-78
2022/05/23 00:52:32;;;;;;;9.53;4.17;;;12.70;1.00;;;;;;5059889;28;20936;-78
2022/05/23 00:55:02;;;;;;;7.30;5.13;;;12.60;1.00;;;;;;5060184;28;20526;-78
2022/05/23 00:57:32;;;;;;;7.10;4.60;;;12.60;1.00;;;;;;5056110;28;20479;-75
2022/05/23 00:59:59;;;;;;;7.80;4.57;;;12.60;1.00;;;;;;5059313;28;20484;-79
2022/05/23 01:02:26;;;;;;;10.37;4.90;;;12.60;1.00;;;;;;5059426;28;20691;-76
2022/05/23 01:04:53;;;;;;;7.40;5.00;;;12.50;1.00;;;;;;5056974;28;20555;-76
2022/05/23 01:07:20;;;;;;;5.90;4.20;;;12.50;1.00;;;;;;5062673;28;20797;-77
2022/05/23 01:09:48;;;;;;;6.37;4.37;;;12.50;1.00;;;;;;5058074;28;20570;-77
2022/05/23 01:12:15;;;;;;;6.93;4.43;;;12.40;1.00;;;;;;5059174;28;21558;-78
2022/05/23 01:14:48;;;;;;;7.43;4.70;;;12.40;1.00;;;;;;5057620;28;20617;-78
2022/05/23 01:17:15;;;;;;;6.93;5.00;;;12.40;1.00;;;;;;5056105;28;20461;-77
2022/05/23 01:19:42;;;;;;;6.60;4.70;;;12.40;1.00;;;;;;5058430;28;20473;-75
2022/05/23 01:22:18;;;;;;;7.00;4.93;;;12.40;1.00;;;;;;5036686;28;20510;-76
2022/05/23 01:24:54;;;;;;;6.53;5.17;;;12.40;1.00;;;;;;5054802;28;21192;-75
2022/05/23 01:27:23;;;;;;;8.03;5.40;;;12.30;1.00;;;;;;5058263;28;21010;-76
2022/05/23 01:29:49;;;;;;;6.53;4.93;;;12.30;1.00;;;;;;5058915;28;20595;-76
2022/05/23 01:32:16;;;;;;;6.60;5.03;;;12.30;1.00;;;;;;5058825;28;21195;-77
2022/05/23 01:34:44;;;;;;;8.07;5.17;;;12.30;1.00;;;;;;5060682;28;20586;-75
2022/05/23 01:37:10;;;;;;;7.73;5.00;;;12.30;1.00;;;;;;5061463;28;20482;-75
2022/05/23 01:39:37;;;;;;;7.53;5.40;;;12.30;1.00;;;;;;5059790;28;20471;-76
2022/05/23 01:42:04;;;;;;;9.43;5.40;;;12.20;1.00;;;;;;5059244;28;20463;-76
2022/05/23 01:44:34;;;;;;;8.43;4.97;;;12.30;1.00;;;;;;5063277;28;20517;-76
2022/05/23 01:47:07;;;;;;;8.10;6.00;;;12.30;1.00;;;;;;5058445;28;21271;-77
2022/05/23 01:49:33;;;;;;;7.57;5.63;;;12.20;1.00;;;;;;5059898;28;20484;-76
2022/05/23 01:52:00;;;;;;;10.73;5.20;;;12.20;1.00;;;;;;5058429;28;20627;-76
2022/05/23 01:54:26;;;;;;;7.97;5.57;;;12.20;1.00;;;;;;5061416;28;21160;-77
2022/05/23 01:56:53;;;;;;;6.90;5.23;;;12.20;1.00;;;;;;5059344;28;20485;-77
2022/05/23 02:02:06;;;;;;;7.93;5.87;;;12.20;1.00;;;;;;5058341;28;20505;-78
2022/05/23 02:04:32;;;;;;;7.47;4.87;;;12.10;1.00;;;;;;5058705;28;20475;-78
2022/05/23 02:06:59;;;;;;;6.73;4.97;;;12.10;1.00;;;;;;5060805;28;20565;-77
2022/05/23 02:09:27;;;;;;;6.23;5.53;;;12.10;1.00;;;;;;5058267;28;20475;-77
2022/05/23 02:11:54;;;;;;;7.47;5.83;;;12.10;1.00;;;;;;5060985;28;20500;-77
2022/05/23 02:14:20;;;;;;;8.93;5.90;;;12.00;1.00;;;;;;5061215;28;20456;-77
2022/05/23 02:16:47;;;;;;;7.43;5.20;;;12.00;1.00;;;;;;5056752;28;20528;-77
2022/05/23 02:19:16;;;;;;;9.60;6.23;;;12.00;1.00;;;;;;5056919;28;20620;-76
2022/05/23 02:21:43;;;;;;;7.33;5.80;;;12.00;1.00;;;;;;5056926;28;20476;-76
2022/05/23 02:24:09;;;;;;;8.07;5.87;;;11.90;1.00;;;;;;5059549;28;20504;-77
2022/05/23 02:26:36;;;;;;;8.00;6.57;;;11.90;1.00;;;;;;5059181;28;20457;-77
2022/05/23 02:29:05;;;;;;;11.77;7.10;;;11.90;1.00;;;;;;5061135;28;20506;-76
2022/05/23 02:31:32;;;;;;;7.50;5.90;;;11.90;1.00;;;;;;5058508;28;20467;-77
2022/05/23 02:33:58;;;;;;;7.47;5.43;;;11.90;1.00;;;;;;5046953;28;20503;-77
2022/05/23 02:36:26;;;;;;;9.27;6.40;;;11.80;1.00;;;;;;5045464;28;20468;-77
2022/05/23 02:38:53;;;;;;;9.43;6.03;;;11.80;1.00;;;;;;5058377;28;21241;-77
2022/05/23 02:41:20;;;;;;;9.30;6.80;;;11.80;1.00;;;;;;5060705;28;21717;-78
2022/05/23 02:43:46;;;;;;;8.40;6.13;;;11.80;1.00;;;;;;5059060;28;20655;-78
2022/05/23 02:46:13;;;;;;;8.20;6.10;;;11.70;1.00;;;;;;5059822;28;20494;-76
2022/05/23 02:48:40;;;;;;;8.50;6.20;;;11.70;1.00;;;;;;5058203;28;20558;-77
2022/05/23 02:51:07;;;;;;;7.20;6.07;;;11.70;1.00;;;;;;5055094;28;20491;-77
2022/05/23 02:53:35;;;;;;;8.20;6.13;;;11.60;1.00;;;;;;5059493;28;20525;-77
2022/05/23 02:56:01;;;;;;;9.47;6.80;;;11.60;1.00;;;;;;5058915;28;20464;-77
2022/05/23 02:58:28;;;;;;;8.03;7.03;;;11.60;1.00;;;;;;5061552;28;20545;-78
2022/05/23 03:00:55;;;;;;;8.23;7.37;;;11.60;1.00;;;;;;5057360;28;21427;-77
2022/05/23 03:03:20;;;;;;;8.90;6.60;;;11.60;1.00;;;;;;5061176;28;20440;-78
2022/05/23 03:05:50;;;;;;;9.70;6.20;;;11.60;1.00;;;;;;5056461;28;20521;-76
2022/05/23 03:08:20;;;;;;;10.20;6.87;;;11.60;1.00;;;;;;5061448;28;20246;-77
2022/05/23 03:10:50;;;;;;;8.70;6.67;;;11.60;1.00;;;;;;5058690;28;20470;-76
2022/05/23 03:13:17;;;;;;;9.10;5.90;;;11.60;1.00;;;;;;5059516;28;20538;-77
2022/05/23 03:15:44;;;;;;;10.97;6.80;;;11.60;1.00;;;;;;5059736;28;20468;-79
2022/05/23 03:18:11;;;;;;;8.70;6.80;;;11.50;1.00;;;;;;5060695;28;20533;-76
2022/05/23 03:20:38;;;;;;;9.33;7.80;;;11.50;1.00;;;;;;5058717;28;20487;-76
2022/05/23 03:28:36;;;;;;;11.37;8.03;;;11.50;1.00;;;;;;5060925;28;20483;-75
2022/05/23 03:31:04;;;;;;;9.97;7.33;;;11.40;1.00;;;;;;5059052;28;20504;-77
2022/05/23 03:33:31;;;;;;;9.50;8.00;;;11.50;1.00;;;;;;5061336;28;20479;-76
2022/05/23 03:35:57;;;;;;;9.10;7.30;;;11.50;1.00;;;;;;5057662;28;21407;-76
2022/05/23 03:38:24;;;;;;;9.27;8.10;;;11.50;1.00;;;;;;5060750;28;20478;-77
2022/05/23 03:40:52;;;;;;;10.50;7.73;;;11.60;1.00;;;;;;5060422;28;20529;-77
2022/05/23 03:43:18;;;;;;;10.60;8.57;;;11.60;1.00;;;;;;5059243;28;20595;-77
2022/05/23 03:45:46;;;;;;;11.73;8.37;;;11.60;1.00;;;;;;5057020;28;20544;-78
2022/05/23 03:48:12;;;;;;;10.33;7.83;;;11.60;1.00;;;;;;5059666;28;20564;-78
2022/05/23 03:50:39;;;;;;;9.40;7.77;;;11.60;1.00;;;;;;5060717;28;20506;-77
2022/05/23 03:53:08;;;;;;;8.10;7.30;;;11.60;1.00;;;;;;5062626;28;20457;-76
2022/05/23 03:55:34;;;;;;;10.90;8.03;;;11.70;1.00;;;;;;5062030;28;20458;-76
2022/05/23 03:58:02;;;;;;;9.90;7.80;;;11.70;1.00;;;;;;5058500;28;20459;-77
2022/05/23 04:00:29;;;;;;;10.47;8.50;;;11.70;1.00;;;;;;5056164;28;22105;-76
2022/05/23 04:02:56;;;;;;;10.30;8.17;;;11.60;1.00;;;;;;5051165;28;20476;-76
2022/05/23 04:05:22;;;;;;;9.87;8.00;;;11.70;1.00;;;;;;5056169;28;20513;-77
2022/05/23 04:07:49;;;;;;;25.67;19.77;;;11.70;1.00;;;;;;5053350;28;20521;-77
2022/05/23 04:10:17;;;;;;;9.70;8.40;;;11.80;1.00;;;;;;5041343;28;20877;-77
2022/05/23 04:12:45;;;;;;;22.87;20.43;;;11.80;1.00;;;;;;5059489;28;20496;-75
2022/05/23 04:15:14;;;;;;;14.67;8.87;;;11.90;1.00;;;;;;5056587;28;20575;-79
2022/05/23 04:17:41;;;;;;;10.53;8.43;;;11.90;1.00;;;;;;5057400;28;20541;-77
2022/05/23 04:20:10;;;;;;;10.80;7.90;;;12.00;1.00;;;;;;5057120;28;20471;-77
2022/05/23 04:22:37;;;;;;;10.17;8.70;;;12.00;1.00;;;;;;5061869;28;20459;-76
2022/05/23 04:25:05;;;;;;;12.07;8.07;;;12.00;1.00;;;;;;5060940;28;20484;-75
2022/05/23 04:27:32;;;;;;;13.13;8.90;;;12.10;1.00;;;;;;5063723;28;20463;-76
2022/05/23 04:30:00;;;;;;;10.00;9.00;;;12.20;1.00;;;;;;5057056;28;22379;-76
2022/05/23 04:35:18;;;;;;;10.33;8.93;;;12.30;1.00;;;;;;5064363;28;21196;-79
2022/05/23 04:37:49;;;;;;;13.03;8.80;;;12.30;1.00;;;;;;5068160;28;20635;-75
2022/05/23 04:40:18;;;;;;;15.23;8.60;;;12.60;1.00;;;;;;5066215;28;20561;-78
2022/05/23 04:42:45;;;;;;;17.30;10.07;;;12.70;1.00;;;;;;5064102;28;20449;-77
2022/05/23 04:45:13;;;;;;;13.70;9.80;;;12.80;1.00;;;;;;5059697;28;20515;-78
2022/05/23 04:50:26;;;;;;;13.73;9.37;;;12.90;1.00;;;;;;5066003;28;20466;-79
2022/05/23 04:52:56;;;;;;;13.00;9.60;;;13.00;1.00;;;;;;5070986;28;20440;-80
2022/05/23 04:55:23;;;;;;;12.93;8.90;;;13.10;1.00;;;;;;5059835;28;21641;-77
2022/05/23 04:57:49;;;;;;;10.63;9.23;;;13.10;1.00;;;;;;5062081;28;20470;-79
2022/05/23 05:00:21;;;;;;;10.03;8.20;;;13.10;1.00;;;;;;5063813;28;20539;-79
2022/05/23 05:02:51;;;;;;;13.73;10.20;;;13.10;1.00;;;;;;5061966;28;20465;-80
2022/05/23 05:05:19;;;;;;;12.40;9.80;;;13.20;1.00;;;;;;5064664;28;20438;-81
2022/05/23 05:07:47;;;;;;;12.20;10.03;;;13.30;1.00;;;;;;5069274;28;20457;-80
2022/05/23 05:10:14;;;;;;;10.77;9.17;;;13.50;1.00;;;;;;5065585;28;20475;-80
2022/05/23 05:12:41;;;;;;;12.10;9.47;;;13.50;1.00;;;;;;5065568;28;20445;-77
2022/05/23 05:15:09;;;;;;;10.87;9.50;;;13.50;1.00;;;;;;5060698;28;20453;-80
2022/05/23 05:17:38;;;;;;;11.30;10.03;;;13.50;1.00;;;;;;5064702;28;20499;-80
2022/05/23 05:20:10;;;;;;;10.73;9.40;;;13.60;1.00;;;;;;5062733;28;20500;-79
2022/05/23 05:22:36;;;;;;;11.33;9.83;;;13.60;1.00;;;;;;5055072;28;20482;-79
2022/05/23 05:25:04;;;;;;;10.80;8.30;;;13.60;1.00;;;;;;5060399;28;21114;-79
2022/05/23 05:27:31;;;;;;;11.63;9.07;;;13.70;1.00;;;;;;5073125;28;20501;-79
2022/05/23 05:29:58;;;;;;;10.23;8.30;;;13.80;1.00;;;;;;5065900;28;20530;-80
2022/05/23 05:32:29;;;;;;;14.03;8.87;;;13.90;1.00;;;;;;5065407;28;22392;-81
2022/05/23 05:35:00;;;;;;;9.73;8.30;;;14.10;1.00;;;;;;5064570;28;20489;-78
2022/05/23 05:37:32;;;;;;;9.33;7.33;;;14.20;1.00;;;;;;5063420;28;20466;-79
2022/05/23 05:40:02;;;;;;;10.23;7.63;;;14.40;1.00;;;;;;5065053;28;20587;-78
2022/05/23 05:42:33;;;;;;;10.73;7.40;;;14.40;1.00;;;;;;5060340;28;20566;-78
2022/05/23 05:45:04;;;;;;;11.27;7.60;;;14.50;1.00;;;;;;5060612;28;20544;-78
2022/05/23 05:47:35;;;;;;;8.77;6.47;;;14.60;1.00;;;;;;5062092;28;20944;-77
2022/05/23 05:50:07;;;;;;;14.00;9.67;;;14.60;1.00;;;;;;5061171;28;20602;-85
2022/05/23 05:52:36;;;;;;;8.70;6.63;;;14.80;1.00;;;;;;5069520;28;20551;-77
2022/05/23 05:55:05;;;;;;;11.63;6.80;;;14.90;1.00;;;;;;5061573;28;20487;-77
2022/05/23 05:57:32;;;;;;;10.33;6.77;;;15.10;1.00;;;;;;5057221;28;20596;-77
2022/05/23 06:00:01;;;;;;;8.10;6.83;;;15.30;1.00;;;;;;5059172;28;20541;-78
2022/05/23 06:02:28;;;;;;;9.67;5.47;;;15.40;1.00;;;;;;5060206;28;20509;-78
2022/05/23 06:04:55;;;;;;;10.00;5.40;;;15.60;1.00;;;;;;5071129;28;20455;-77
2022/05/23 06:12:56;;;;;;;6.70;4.70;;;15.80;1.00;;;;;;5066431;28;20439;-75
2022/05/23 06:15:24;;;;;;;7.00;4.17;;;15.90;1.00;;;;;;5049567;28;21499;-75
2022/05/23 06:17:52;;;;;;;7.53;5.40;;;15.90;1.00;;;;;;5069306;28;20488;-75
2022/05/23 06:20:19;;;;;;;6.90;4.10;;;15.90;1.00;;;;;;5073006;28;20435;-76
2022/05/23 06:22:46;;;;;;;7.83;4.40;;;16.00;1.00;;;;;;5061213;28;20456;-76
2022/05/23 06:25:14;;;;;;;8.57;3.80;;;16.10;1.00;;;;;;5069531;28;20456;-77
2022/05/23 06:27:41;;;;;;;8.10;4.37;;;16.10;1.00;;;;;;5067576;28;20532;-76
2022/05/23 06:30:10;;;;;;;6.63;4.37;;;16.10;1.00;;;;;;5067050;28;20466;-76
2022/05/23 06:32:38;;;;;;;6.03;4.10;;;16.00;1.00;;;;;;5068060;28;20428;-75
2022/05/23 06:35:07;;;;;;;7.67;4.40;;;16.20;1.00;;;;;;5066398;28;20435;-77
2022/05/23 06:37:35;;;;;;;6.07;4.20;;;16.20;1.00;;;;;;5067404;28;20417;-77
2022/05/23 06:40:03;;;;;;;7.20;4.10;;;16.20;1.00;;;;;;5071132;28;20446;-77
2022/05/23 06:42:32;;;;;;;11.60;4.10;;;16.30;1.00;;;;;;5072311;28;20443;-78
2022/05/23 06:44:59;;;;;;;6.17;4.13;;;16.50;1.00;;;;;;5072900;28;20482;-77
2022/05/23 06:47:26;;;;;;;6.77;4.13;;;16.50;1.00;;;;;;5067266;28;20462;-76
2022/05/23 06:49:54;;;;;;;6.80;4.50;;;16.60;1.00;;;;;;5064826;28;20497;-77
2022/05/23 06:52:21;;;;;;;7.07;4.20;;;16.80;1.00;;;;;;5063383;28;20466;-78
2022/05/23 06:54:48;;;;;;;6.83;4.10;;;16.90;1.00;;;;;;5062517;28;20513;-76
2022/05/23 06:57:15;;;;;;;5.77;3.57;;;17.00;1.00;;;;;;5071444;28;20470;-77
2022/05/23 06:59:43;;;;;;;7.10;3.50;;;17.10;1.00;;;;;;5069459;28;20471;-76
2022/05/23 07:02:11;;;;;;;6.80;4.00;;;17.20;1.00;;;;;;5056152;28;21102;-77
2022/05/23 07:12:57;;;;;;;6.40;3.43;;;17.80;1.00;;;;;;5032156;28;20578;-79
2022/05/23 07:15:27;;;;;;;6.30;3.60;;;18.20;1.00;;;;;;5048598;28;20978;-77
2022/05/23 07:17:54;;;;;;;7.40;3.70;;;18.30;1.00;;;;;;5063689;28;20458;-74
2022/05/23 07:20:20;;;;;;;6.00;3.40;;;18.40;1.00;;;;;;5068926;28;20478;-76
2022/05/23 07:22:47;;;;;;;6.30;3.50;;;18.50;1.00;;;;;;5073000;28;21263;-77
2022/05/23 07:25:14;;;;;;;6.00;3.40;;;18.50;1.00;;;;;;5063727;28;20678;-76
2022/05/23 07:27:41;;;;;;;8.37;3.90;;;18.60;1.00;;;;;;5066690;28;20466;-77
2022/05/23 07:30:09;;;;;;;7.53;3.30;;;18.70;1.00;;;;;;5066477;28;20479;-75
2022/05/23 07:32:37;;;;;;;5.83;3.43;;;18.60;1.00;;;;;;5069544;28;20471;-77
2022/05/23 07:35:05;;;;;;;6.37;3.60;;;18.50;1.00;;;;;;5075908;28;20424;-77
2022/05/23 07:37:31;;;;;;;5.93;3.00;;;18.40;1.00;;;;;;5066110;28;20463;-76
2022/05/23 07:39:58;;;;;;;6.90;3.27;;;18.50;1.00;;;;;;5071775;28;20470;-76
2022/05/23 07:42:25;;;;;;;7.20;3.77;;;18.60;1.00;;;;;;5071931;28;20441;-77
2022/05/23 07:44:54;;;;;;;7.67;2.83;;;18.80;1.00;;;;;;5066583;28;20429;-77
2022/05/23 07:47:20;;;;;;;6.33;3.40;;;18.90;1.00;;;;;;5063534;28;20999;-76
2022/05/23 07:49:52;;;;;;;8.83;3.37;;;19.10;1.00;;;;;;5057995;28;20561;-78
2022/05/23 07:52:18;;;;;;;10.10;3.50;;;19.20;1.00;;;;;;5065839;28;20466;-77
2022/05/23 08:00:34;;;;;;;7.50;3.70;;;19.50;1.00;;;;;;5020046;28;20475;-77
2022/05/23 08:03:04;;;;;;;9.20;3.20;;;19.60;1.00;;;;;;5061861;28;20458;-76
2022/05/23 08:05:32;;;;;;;8.60;2.70;;;19.90;1.00;;;;;;5058780;28;20431;-77
2022/05/23 08:07:59;;;;;;;7.57;2.80;;;20.00;1.00;;;;;;5064718;28;20530;-79
2022/05/23 08:10:27;;;;;;;7.40;2.20;;;20.10;1.00;;;;;;5062660;28;20516;-78
2022/05/23 08:12:55;;;;;;;6.20;2.50;;;20.30;1.00;;;;;;5057265;28;20485;-77
2022/05/23 08:15:22;;;;;;;6.10;1.90;;;20.50;1.00;;;;;;5047683;28;20501;-78
2022/05/23 08:17:49;;;;;;;8.57;2.60;;;20.60;1.00;;;;;;5062230;28;20521;-77
2022/05/23 08:20:16;;;;;;;7.10;2.70;;;20.50;1.00;;;;;;5064812;28;20435;-78
2022/05/23 08:22:51;;;;;;;7.30;3.47;;;20.50;1.00;;;;;;5067835;28;20424;-77
2022/05/23 08:25:19;;;;;;;8.03;2.60;;;20.40;1.00;;;;;;5063755;28;20459;-78
2022/05/23 08:27:46;;;;;;;6.00;2.10;;;20.30;1.00;;;;;;5063265;28;20479;-78
2022/05/23 08:30:13;;;;;;;8.40;5.73;;;20.20;1.00;;;;;;5063454;28;20449;-78
2022/05/23 08:32:40;;;;;;;10.00;2.70;;;20.40;1.00;;;;;;5064953;28;20471;-78
2022/05/23 08:35:09;;;;;;;6.13;2.07;;;20.50;1.00;;;;;;5060505;28;20443;-78
2022/05/23 08:37:37;;;;;;;7.53;2.77;;;20.60;1.00;;;;;;5062290;28;20999;-76
2022/05/23 08:40:07;;;;;;;6.00;2.00;;;20.70;1.00;;;;;;5046967;28;20502;-77
2022/05/23 08:42:42;;;;;;;6.67;2.60;;;20.60;1.00;;;;;;5065167;28;21318;-78
2022/05/23 08:45:15;;;;;;;7.97;3.00;;;20.80;1.00;;;;;;5063045;28;20448;-77
2022/05/23 08:47:49;;;;;;;7.00;2.13;;;21.00;1.00;;;;;;5067866;28;20582;-78
2022/05/23 08:50:23;;;;;;;13.53;4.00;;;21.20;1.00;;;;;;5064744;28;20564;-77
2022/05/23 08:52:57;;;;;;;6.60;2.40;;;21.20;1.00;;;;;;5065662;28;20497;-78
2022/05/23 08:55:31;;;;;;;7.00;3.07;;;21.30;1.00;;;;;;5064900;28;20528;-78
2022/05/23 08:58:05;;;;;;;7.63;2.70;;;21.40;1.00;;;;;;5066351;28;21245;-77
2022/05/23 09:00:36;;;;;;;8.13;2.90;;;21.60;1.00;;;;;;5063989;28;20438;-77
2022/05/23 09:03:08;;;;;;;9.87;3.60;;;21.80;1.00;;;;;;5066045;28;20456;-78
2022/05/23 09:05:38;;;;;;;6.10;2.00;;;22.00;1.00;;;;;;5068632;28;20559;-78
2022/05/23 09:08:08;;;;;;;9.27;3.70;;;22.20;1.00;;;;;;5066002;28;20448;-81
2022/05/23 09:10:44;;;;;;;7.20;2.43;;;21.90;1.00;;;;;;5066561;28;20532;-80
2022/05/23 09:13:15;;;;;;;6.30;2.50;;;22.10;1.00;;;;;;5064742;28;20522;-78
2022/05/23 09:15:43;;;;;;;7.77;3.27;;;22.20;1.00;;;;;;5063321;28;20867;-79
2022/05/23 09:18:18;;;;;;;7.97;2.50;;;22.30;1.00;;;;;;5068734;28;20431;-80
2022/05/23 09:20:47;;;;;;;6.47;2.40;;;22.30;1.00;;;;;;5067975;28;20532;-79
2022/05/23 09:23:25;;;;;;;7.40;2.40;;;22.70;1.00;;;;;;5067083;28;20546;-79
2022/05/23 09:25:55;;;;;;;6.97;2.37;;;22.80;1.00;;;;;;5062563;28;20624;-81
2022/05/23 09:28:30;;;;;;;7.67;2.20;;;23.00;1.00;;;;;;5068158;28;20420;-80
2022/05/23 09:31:00;;;;;;;7.47;2.30;;;23.20;1.00;;;;;;5065465;28;20986;-81
2022/05/23 09:33:31;;;;;;;8.17;1.80;;;23.80;1.00;;;;;;5065544;28;20510;-81
2022/05/23 09:36:15;;;;;;;7.90;2.40;;;24.20;1.00;;;;;;5062269;28;20449;-80
2022/05/23 09:38:53;;;;;;;6.37;1.70;;;24.80;1.00;;;;;;5070741;28;20988;-81
2022/05/23 09:50:10;;;;;;;6.77;1.70;;;26.90;1.00;;;;;;5063298;28;20456;-78
2022/05/23 09:52:48;;;;;;;8.30;1.77;;;27.10;1.00;;;;;;5063180;28;20483;-79
2022/05/23 09:55:28;;;;;;;5.70;1.47;;;27.10;1.00;;;;;;5065227;28;20969;-81
2022/05/23 09:58:00;;;;;;;7.23;1.57;;;27.30;1.00;;;;;;5057997;28;20475;-78
2022/05/23 10:00:34;;;;;;;6.23;1.37;;;27.50;1.00;;;;;;5061760;28;20514;-77
2022/05/23 10:03:04;;;;;;;8.17;2.47;;;26.80;1.00;;;;;;5061058;28;20479;-80
2022/05/23 10:05:34;;;;;;;6.47;1.93;;;26.40;1.00;;;;;;5062943;28;20546;-79
2022/05/23 10:08:03;;;;;;;6.30;1.80;;;26.70;1.00;;;;;;5065835;28;20993;-80
2022/05/23 10:10:31;;;;;;;9.37;1.80;;;26.90;1.00;;;;;;5062865;28;20482;-79
2022/05/23 10:13:20;;;;;;;6.37;1.90;;;27.30;1.00;;;;;;5064105;28;20491;-79
2022/05/23 10:15:50;;;;;;;6.40;2.10;;;27.30;1.00;;;;;;5062871;28;21331;-79
2022/05/23 10:18:20;;;;;;;6.73;1.70;;;27.50;1.00;;;;;;5065277;28;20460;-80
2022/05/23 10:20:47;;;;;;;8.23;1.97;;;27.20;1.00;;;;;;5064700;28;20463;-80
2022/05/23 10:23:17;;;;;;;6.80;1.80;;;27.00;1.00;;;;;;5059264;28;20475;-81
2022/05/23 10:25:51;;;;;;;6.90;1.90;;;27.40;1.00;;;;;;5041119;28;20525;-78
2022/05/23 10:28:27;;;;;;;7.20;3.20;;;27.50;1.00;;;;;;5059487;28;20577;-80
2022/05/23 10:31:01;;;;;;;6.57;1.73;;;27.30;1.00;;;;;;5059248;28;20464;-78
2022/05/23 10:33:31;;;;;;;6.53;1.70;;;27.30;1.00;;;;;;5060137;28;20479;-83
2022/05/23 10:36:02;;;;;;;5.90;1.97;;;26.90;1.00;;;;;;5064030;28;20512;-78
2022/05/23 10:44:21;;;;;;;7.27;2.07;;;25.60;1.00;;;;;;5059989;28;20521;-78
2022/05/23 10:46:54;;;;;;;6.00;1.80;;;26.50;1.00;;;;;;5064642;28;20511;-80
2022/05/23 10:49:27;;;;;;;6.10;2.10;;;26.90;1.00;;;;;;5068396;28;20467;-77
2022/05/23 10:52:04;;;;;;;7.43;1.70;;;27.40;1.00;;;;;;5063974;28;20464;-79
2022/05/23 10:54:44;;;;;;;7.17;1.63;;;27.90;1.00;;;;;;5066940;28;20514;-80
2022/05/23 10:57:23;;;;;;;6.60;1.93;;;28.30;1.00;;;;;;5072041;28;20569;-80
2022/05/23 11:00:00;;;;;;;7.03;2.00;;;28.10;1.00;;;;;;5064613;28;20514;-79
2022/05/23 11:02:36;;;;;;;7.63;2.03;;;27.70;1.00;;;;;;5064998;28;20463;-78
2022/05/23 11:05:16;;;;;;;5.93;1.70;;;27.40;1.00;;;;;;5061544;28;20470;-80
2022/05/23 11:08:00;;;;;;;6.70;1.87;;;27.80;1.00;;;;;;5065039;28;20464;-80
2022/05/23 11:10:34;;;;;;;7.07;1.67;;;28.20;1.00;;;;;;5053551;28;20459;-77
2022/05/23 11:13:14;;;;;;;9.23;1.90;;;27.90;1.00;;;;;;5062587;28;20550;-80
2022/05/23 11:15:53;;;;;;;7.37;1.77;;;28.00;1.00;;;;;;5066053;28;20458;-78
2022/05/23 11:18:29;;;;;;;6.57;2.10;;;27.60;1.00;;;;;;5069458;28;20530;-78
2022/05/23 11:21:01;;;;;;;6.23;1.97;;;27.60;1.00;;;;;;5068952;28;20482;-78
2022/05/23 11:23:34;;;;;;;5.90;1.80;;;27.60;1.00;;;;;;5074877;28;20463;-80
2022/05/23 11:26:08;;;;;;;6.80;1.80;;;27.90;1.00;;;;;;5070101;28;20475;-79
2022/05/23 11:34:22;;;;;;;8.50;2.00;;;29.20;1.00;;;;;;5065026;28;20457;-80
2022/05/23 11:37:01;;;;;;;6.70;2.07;;;28.90;1.00;;;;;;5062143;28;20474;-79
2022/05/23 11:39:48;;;;;;;8.00;1.70;;;28.50;1.00;;;;;;5069441;28;20459;-78
2022/05/23 11:42:17;;;;;;;6.10;2.10;;;28.30;1.00;;;;;;5072397;28;20450;-78
2022/05/23 11:44:57;;;;;;;7.53;2.50;;;28.40;1.00;;;;;;5071891;28;20439;-77
2022/05/23 11:47:27;;;;;;;11.10;4.10;;;28.50;1.00;;;;;;5074643;28;20517;-78
2022/05/23 11:50:21;;;;;;;6.93;2.00;;;28.60;1.00;;;;;;5069113;28;20466;-76
2022/05/23 11:52:51;;;;;;;5.80;1.93;;;29.20;1.00;;;;;;5052558;28;20463;-77
2022/05/23 11:55:52;;;;;;;8.00;2.30;;;29.90;1.00;;;;;;5070929;28;20533;-79
2022/05/23 11:58:23;;;;;;;8.00;2.70;;;30.70;1.00;;;;;;5070036;28;20475;-79
2022/05/23 12:01:04;;;;;;;6.13;1.47;;;30.80;1.00;;;;;;5069126;28;20480;-79
2022/05/23 12:04:27;;;;;;;5.97;1.80;;;30.60;1.00;;;;;;5072615;28;20451;-80
2022/05/23 12:06:54;;;;;;;8.80;3.03;;;29.80;1.00;;;;;;5069487;28;20597;-80
2022/05/23 12:09:33;;;;;;;7.13;2.77;;;30.00;1.00;;;;;;5076167;28;20467;-80
2022/05/23 12:12:47;;;;;;;7.80;2.13;;;30.00;1.00;;;;;;5071793;28;20973;-80
2022/05/23 12:15:47;;;;;;;6.37;2.10;;;29.70;1.00;;;;;;5070892;28;20474;-80
2022/05/23 12:18:32;;;;;;;18.10;9.37;;;29.40;1.00;;;;;;5066032;28;20598;-80
2022/05/23 12:21:01;;;;;;;6.67;2.20;;;29.30;1.00;;;;;;5071472;28;20526;-79
2022/05/23 12:23:35;;;;;;;7.80;2.40;;;28.90;1.00;;;;;;5072376;28;20428;-76
2022/05/23 12:26:22;;;;;;;7.60;2.57;;;28.70;1.00;;;;;;5066765;28;20555;-77
2022/05/23 12:28:52;;;;;;;6.10;1.90;;;28.10;1.00;;;;;;5069930;28;20494;-81
2022/05/23 12:31:19;;;;;;;6.87;2.47;;;28.30;1.00;;;;;;5069374;28;20632;-76
2022/05/23 12:34:09;;;;;;;6.10;1.90;;;29.30;1.00;;;;;;5064966;28;20456;-77
2022/05/23 12:36:41;;;;;;;6.60;2.23;;;30.60;1.00;;;;;;5051581;28;20541;-81
2022/05/23 12:39:48;;;;;;;9.70;3.10;;;32.00;1.00;;;;;;5062022;28;20486;-81
2022/05/23 12:42:27;;;;;;;7.50;2.60;;;32.90;1.00;;;;;;5067548;28;20467;-78
2022/05/23 12:45:32;;;;;;;10.63;6.83;;;31.90;1.00;;;;;;5069933;28;20573;-80
2022/05/23 12:48:23;;;;;;;6.07;1.57;;;30.80;1.00;;;;;;5063455;28;20922;-81
2022/05/23 12:51:01;;;;;;;6.90;2.20;;;30.70;1.00;;;;;;5063653;28;20463;-78
2022/05/23 12:53:40;;;;;;;8.03;2.17;;;29.90;1.00;;;;;;5062490;28;20470;-81
2022/05/23 12:56:18;;;;;;;6.20;2.00;;;29.50;1.00;;;;;;5064679;28;20521;-82
2022/05/23 12:59:20;;;;;;;5.90;1.80;;;29.40;1.00;;;;;;5071066;28;20451;-81
2022/05/23 13:01:53;;;;;;;6.70;2.23;;;29.60;1.00;;;;;;5066033;28;20511;-81
2022/05/23 13:04:24;;;;;;;7.93;2.47;;;29.60;1.00;;;;;;5066664;28;20568;-80
2022/05/23 13:06:58;;;;;;;7.40;1.97;;;29.70;1.00;;;;;;5066683;28;20436;-80
2022/05/23 13:09:38;;;;;;;7.30;1.70;;;30.10;1.00;;;;;;5066159;28;20443;-80
2022/05/23 13:12:09;;;;;;;7.27;2.63;;;29.40;1.00;;;;;;5069015;28;20590;-81
2022/05/23 13:14:50;;;;;;;8.17;2.00;;;29.00;1.00;;;;;;5072469;28;20529;-81
2022/05/23 13:17:30;;;;;;;5.70;2.00;;;29.30;1.00;;;;;;5063361;28;20478;-79
2022/05/23 13:22:41;;;;;;;5.77;1.90;;;29.30;1.00;;;;;;5066212;28;21527;-80
2022/05/23 13:25:11;;;;;;;8.50;2.73;;;29.10;1.00;;;;;;5070555;28;20439;-83
2022/05/23 13:27:46;;;;;;;9.90;4.20;;;29.70;1.00;;;;;;5051264;28;20530;-81
2022/05/23 13:30:23;;;;;;;6.50;2.10;;;30.80;1.00;;;;;;5067421;28;20617;-82
2022/05/23 13:33:01;;;;;;;6.87;1.80;;;31.60;1.00;;;;;;5069358;28;20508;-81
2022/05/23 13:35:30;;;;;;;7.20;2.17;;;32.40;1.00;;;;;;5068132;28;20474;-81
2022/05/23 13:37:57;;;;;;;5.63;1.70;;;33.40;1.00;;;;;;5066747;28;20440;-80
2022/05/23 13:40:29;;;;;;;5.43;1.57;;;33.10;1.00;;;;;;5067874;28;21812;-80
2022/05/23 13:43:10;;;;;;;6.27;2.00;;;32.90;1.00;;;;;;5068014;28;20459;-81
2022/05/23 13:45:39;;;;;;;6.83;1.97;;;34.20;1.00;;;;;;5065827;28;20479;-79
2022/05/23 13:48:09;;;;;;;8.90;2.30;;;34.70;1.00;;;;;;5071254;28;20620;-82
2022/05/23 13:50:40;;;;;;;7.10;1.93;;;33.80;1.00;;;;;;5068098;28;20993;-82
2022/05/23 13:53:10;;;;;;;6.20;1.70;;;33.50;1.00;;;;;;5065922;28;20819;-81
2022/05/23 13:55:43;;;;;;;6.87;2.30;;;32.80;1.00;;;;;;5067302;28;21733;-79
2022/05/23 13:58:13;;;;;;;5.30;1.70;;;32.50;1.00;;;;;;5069302;28;20452;-79
2022/05/23 14:00:43;;;;;;;6.53;2.40;;;32.90;1.00;;;;;;5063287;28;20455;-80
2022/05/23 14:03:12;;;;;;;6.20;1.70;;;33.30;1.00;;;;;;5064037;28;20466;-81
2022/05/23 14:05:43;;;;;;;6.73;2.40;;;33.30;1.00;;;;;;5068444;28;20519;-80
2022/05/23 14:08:10;;;;;;;5.80;2.00;;;33.70;1.00;;;;;;5065796;28;20443;-80
2022/05/23 14:10:42;;;;;;;6.00;2.00;;;34.40;1.00;;;;;;5067113;28;20562;-80
2022/05/23 14:13:10;;;;;;;6.13;1.80;;;34.50;1.00;;;;;;5038338;28;21047;-80
2022/05/23 14:15:38;;;;;;;5.90;1.73;;;34.60;1.00;;;;;;5067228;28;20478;-80
2022/05/23 14:18:13;;;;;;;6.17;1.80;;;34.00;1.00;;;;;;5068628;28;20463;-79
2022/05/23 14:20:45;;;;;;;5.50;1.87;;;34.60;1.00;;;;;;5069275;28;20529;-79